sensor_id;sensor_type;location;lat;lon;timestamp;pressure;altitude;pressure_sealevel;temperature;humidity
49843;BME280;55559;48.898;9.184;2023-01-26T00:01:06;99035.91;;;-0.11;100.00
49843;BME280;55559;48.898;9.184;2023-01-26T00:03:34;99033.81;;;-0.01;100.00
49843;BME280;55559;48.898;9.184;2023-01-26T00:06:03;99027.28;;;-0.13;100.00
49843;BME280;55559;48.898;9.184;2023-01-26T00:08:33;99024.56;;;-0.10;100.00
49843;BME280;55559;48.898;9.184;2023-01-26T00:11:02;99011.59;;;-0.13;100.00
49843;BME280;55559;48.898;9.184;2023-01-26T00:13:32;99016.75;;;-0.11;100.00
49843;BME280;55559;48.898;9.184;2023-01-26T00:16:00;99016.06;;;-0.16;100.00
49843;BME280;55559;48.898;9.184;2023-01-26T00:18:28;99008.81;;;-0.08;100.00
49843;BME280;55559;48.898;9.184;2023-01-26T00:20:55;99003.59;;;-0.08;100.00
49843;BME280;55559;48.898;9.184;2023-01-26T00:23:24;98994.91;;;-0.10;100.00
49843;BME280;55559;48.898;9.184;2023-01-26T00:25:51;98993.91;;;-0.06;100.00
49843;BME280;55559;48.898;9.184;2023-01-26T00:28:19;98988.84;;;-0.11;100.00
49843;BME280;55559;48.898;9.184;2023-01-26T00:30:48;98995.78;;;-0.10;100.00
49843;BME280;55559;48.898;9.184;2023-01-26T00:33:16;98982.53;;;-0.05;100.00
49843;BME280;55559;48.898;9.184;2023-01-26T00:35:43;98998.50;;;-0.13;100.00
49843;BME280;55559;48.898;9.184;2023-01-26T00:38:11;98973.38;;;-0.17;100.00
49843;BME280;55559;48.898;9.184;2023-01-26T00:40:40;98981.06;;;-0.12;100.00
49843;BME280;55559;48.898;9.184;2023-01-26T00:43:07;98973.06;;;-0.08;100.00
49843;BME280;55559;48.898;9.184;2023-01-26T00:45:35;98972.31;;;-0.11;100.00
49843;BME280;55559;48.898;9.184;2023-01-26T00:48:06;98967.09;;;-0.11;100.00
49843;BME280;55559;48.898;9.184;2023-01-26T00:50:34;98965.38;;;-0.12;100.00
49843;BME280;55559;48.898;9.184;2023-01-26T00:53:01;98968.66;;;-0.07;100.00
49843;BME280;55559;48.898;9.184;2023-01-26T00:55:28;98956.59;;;-0.10;100.00
49843;BME280;55559;48.898;9.184;2023-01-26T00:57:59;98953.97;;;-0.10;100.00
49843;BME280;55559;48.898;9.184;2023-01-26T01:00:29;98949.09;;;0.03;100.00
49843;BME280;55559;48.898;9.184;2023-01-26T01:02:57;98954.06;;;0.11;100.00
49843;BME280;55559;48.898;9.184;2023-01-26T01:05:27;98957.94;;;0.01;100.00
49843;BME280;55559;48.898;9.184;2023-01-26T01:07:56;98958.84;;;-0.01;100.00
49843;BME280;55559;48.898;9.184;2023-01-26T01:10:24;98960.50;;;0.02;100.00
49843;BME280;55559;48.898;9.184;2023-01-26T01:12:52;98964.22;;;-0.05;100.00
49843;BME280;55559;48.898;9.184;2023-01-26T01:15:22;98967.03;;;-0.10;100.00
49843;BME280;55559;48.898;9.184;2023-01-26T01:17:50;98963.38;;;-0.06;100.00
49843;BME280;55559;48.898;9.184;2023-01-26T01:20:17;98960.72;;;-0.04;100.00
49843;BME280;55559;48.898;9.184;2023-01-26T01:22:47;98958.16;;;-0.06;100.00
49843;BME280;55559;48.898;9.184;2023-01-26T01:25:17;98961.34;;;0.03;100.00
49843;BME280;55559;48.898;9.184;2023-01-26T01:27:44;98949.63;;;-0.11;100.00
49843;BME280;55559;48.898;9.184;2023-01-26T01:30:12;98944.84;;;0.01;100.00
49843;BME280;55559;48.898;9.184;2023-01-26T01:32:40;98946.97;;;-0.09;100.00
49843;BME280;55559;48.898;9.184;2023-01-26T01:35:08;98951.41;;;-0.11;100.00
49843;BME280;55559;48.898;9.184;2023-01-26T01:37:35;98956.13;;;-0.21;100.00
49843;BME280;55559;48.898;9.184;2023-01-26T01:40:05;98950.72;;;-0.16;100.00
49843;BME280;55559;48.898;9.184;2023-01-26T01:42:33;98943.91;;;-0.21;100.00
49843;BME280;55559;48.898;9.184;2023-01-26T01:45:26;98947.91;;;-0.12;100.00
49843;BME280;55559;48.898;9.184;2023-01-26T01:48:01;98937.66;;;-0.16;100.00
49843;BME280;55559;48.898;9.184;2023-01-26T01:50:34;98935.84;;;-0.14;100.00
49843;BME280;55559;48.898;9.184;2023-01-26T01:53:03;98934.84;;;-0.12;100.00
49843;BME280;55559;48.898;9.184;2023-01-26T01:55:34;98934.59;;;-0.28;100.00
49843;BME280;55559;48.898;9.184;2023-01-26T01:58:03;98931.97;;;-0.28;100.00
49843;BME280;55559;48.898;9.184;2023-01-26T02:00:32;98929.94;;;-0.20;100.00
49843;BME280;55559;48.898;9.184;2023-01-26T02:03:02;98927.66;;;-0.29;100.00
49843;BME280;55559;48.898;9.184;2023-01-26T02:05:54;98921.25;;;-0.20;100.00
49843;BME280;55559;48.898;9.184;2023-01-26T02:08:28;98928.72;;;-0.11;100.00
49843;BME280;55559;48.898;9.184;2023-01-26T02:11:02;98929.63;;;-0.12;100.00
49843;BME280;55559;48.898;9.184;2023-01-26T02:13:32;98923.66;;;-0.15;100.00
49843;BME280;55559;48.898;9.184;2023-01-26T02:16:00;98922.63;;;-0.33;100.00
49843;BME280;55559;48.898;9.184;2023-01-26T02:18:28;98927.94;;;-0.36;100.00
49843;BME280;55559;48.898;9.184;2023-01-26T02:20:59;98922.56;;;-0.32;100.00
49843;BME280;55559;48.898;9.184;2023-01-26T02:23:39;98916.03;;;-0.44;100.00
49843;BME280;55559;48.898;9.184;2023-01-26T02:26:13;98916.56;;;-0.35;100.00
49843;BME280;55559;48.898;9.184;2023-01-26T02:28:42;98914.81;;;-0.35;100.00
49843;BME280;55559;48.898;9.184;2023-01-26T02:31:11;98911.34;;;-0.35;100.00
49843;BME280;55559;48.898;9.184;2023-01-26T02:33:40;98919.88;;;-0.30;100.00
49843;BME280;55559;48.898;9.184;2023-01-26T02:36:16;98911.69;;;-0.21;100.00
49843;BME280;55559;48.898;9.184;2023-01-26T02:38:50;98911.69;;;-0.21;100.00
49843;BME280;55559;48.898;9.184;2023-01-26T02:41:19;98902.81;;;-0.17;100.00
49843;BME280;55559;48.898;9.184;2023-01-26T02:44:03;98910.03;;;-0.24;100.00
49843;BME280;55559;48.898;9.184;2023-01-26T02:46:31;98905.56;;;-0.20;100.00
49843;BME280;55559;48.898;9.184;2023-01-26T02:48:58;98908.28;;;-0.23;100.00
49843;BME280;55559;48.898;9.184;2023-01-26T02:51:43;98910.03;;;-0.24;100.00
49843;BME280;55559;48.898;9.184;2023-01-26T02:54:10;98893.63;;;-0.27;100.00
49843;BME280;55559;48.898;9.184;2023-01-26T02:57:00;98903.06;;;-0.47;100.00
49843;BME280;55559;48.898;9.184;2023-01-26T02:59:27;98909.66;;;-0.36;100.00
49843;BME280;55559;48.898;9.184;2023-01-26T03:01:55;98898.78;;;-0.49;100.00
49843;BME280;55559;48.898;9.184;2023-01-26T03:04:23;98902.81;;;-0.41;100.00
49843;BME280;55559;48.898;9.184;2023-01-26T03:06:53;98899.19;;;-0.36;100.00
49843;BME280;55559;48.898;9.184;2023-01-26T03:09:21;98895.81;;;-0.39;100.00
49843;BME280;55559;48.898;9.184;2023-01-26T03:11:49;98894.03;;;-0.38;100.00
49843;BME280;55559;48.898;9.184;2023-01-26T03:14:18;98888.91;;;-0.41;100.00
49843;BME280;55559;48.898;9.184;2023-01-26T03:16:48;98892.47;;;-0.42;100.00
49843;BME280;55559;48.898;9.184;2023-01-26T03:19:16;98885.69;;;-0.48;100.00
49843;BME280;55559;48.898;9.184;2023-01-26T03:22:08;98880.41;;;-0.46;100.00
49843;BME280;55559;48.898;9.184;2023-01-26T03:24:58;98870.00;;;-0.48;100.00
49843;BME280;55559;48.898;9.184;2023-01-26T03:27:44;98872.00;;;-0.54;100.00
49843;BME280;55559;48.898;9.184;2023-01-26T03:30:16;98873.81;;;-0.57;100.00
49843;BME280;55559;48.898;9.184;2023-01-26T03:32:46;98882.50;;;-0.56;100.00
49843;BME280;55559;48.898;9.184;2023-01-26T03:35:15;98872.97;;;-0.57;100.00
49843;BME280;55559;48.898;9.184;2023-01-26T03:37:48;98862.53;;;-0.57;100.00
49843;BME280;55559;48.898;9.184;2023-01-26T03:40:32;98871.47;;;-0.64;100.00
49843;BME280;55559;48.898;9.184;2023-01-26T03:43:17;98865.41;;;-0.65;100.00
49843;BME280;55559;48.898;9.184;2023-01-26T03:46:06;98866.44;;;-0.69;100.00
49843;BME280;55559;48.898;9.184;2023-01-26T03:48:50;98865.56;;;-0.69;100.00
49843;BME280;55559;48.898;9.184;2023-01-26T03:51:35;98855.06;;;-0.68;100.00
49843;BME280;55559;48.898;9.184;2023-01-26T03:54:20;98868.94;;;-0.66;100.00
49843;BME280;55559;48.898;9.184;2023-01-26T03:57:12;98874.19;;;-0.66;100.00
49843;BME280;55559;48.898;9.184;2023-01-26T03:59:39;98869.13;;;-0.70;100.00
49843;BME280;55559;48.898;9.184;2023-01-26T04:02:11;98866.13;;;-0.85;100.00
49843;BME280;55559;48.898;9.184;2023-01-26T04:04:57;98879.28;;;-0.88;100.00
49843;BME280;55559;48.898;9.184;2023-01-26T04:07:46;98871.47;;;-0.88;100.00
49843;BME280;55559;48.898;9.184;2023-01-26T04:10:31;98867.22;;;-0.90;100.00
49843;BME280;55559;48.898;9.184;2023-01-26T04:13:01;98862.69;;;-0.85;100.00
49843;BME280;55559;48.898;9.184;2023-01-26T04:15:51;98861.88;;;-0.87;100.00
49843;BME280;55559;48.898;9.184;2023-01-26T04:18:38;98869.47;;;-0.81;100.00
49843;BME280;55559;48.898;9.184;2023-01-26T04:21:22;98873.06;;;-0.84;100.00
49843;BME280;55559;48.898;9.184;2023-01-26T04:24:00;98882.66;;;-0.84;100.00
49843;BME280;55559;48.898;9.184;2023-01-26T04:26:29;98878.81;;;-0.74;100.00
49843;BME280;55559;48.898;9.184;2023-01-26T04:29:01;98873.59;;;-0.74;100.00
49843;BME280;55559;48.898;9.184;2023-01-26T04:31:30;98874.91;;;-0.86;100.00
49843;BME280;55559;48.898;9.184;2023-01-26T04:33:59;98872.28;;;-0.86;100.00
49843;BME280;55559;48.898;9.184;2023-01-26T04:36:28;98872.38;;;-0.89;100.00
49843;BME280;55559;48.898;9.184;2023-01-26T04:38:56;98865.50;;;-0.91;100.00
49843;BME280;55559;48.898;9.184;2023-01-26T04:41:23;98872.44;;;-0.90;100.00
49843;BME280;55559;48.898;9.184;2023-01-26T04:43:59;98869.28;;;-1.00;100.00
49843;BME280;55559;48.898;9.184;2023-01-26T04:46:27;98862.94;;;-0.93;100.00
49843;BME280;55559;48.898;9.184;2023-01-26T04:48:54;98866.59;;;-0.97;100.00
49843;BME280;55559;48.898;9.184;2023-01-26T04:51:24;98859.66;;;-0.98;100.00
49843;BME280;55559;48.898;9.184;2023-01-26T04:53:54;98861.84;;;-0.86;100.00
49843;BME280;55559;48.898;9.184;2023-01-26T04:56:24;98861.22;;;-0.92;100.00
49843;BME280;55559;48.898;9.184;2023-01-26T04:58:53;98854.09;;;-0.89;100.00
49843;BME280;55559;48.898;9.184;2023-01-26T05:01:21;98854.16;;;-0.90;100.00
49843;BME280;55559;48.898;9.184;2023-01-26T05:03:49;98857.91;;;-0.98;100.00
49843;BME280;55559;48.898;9.184;2023-01-26T05:06:17;98851.75;;;-0.97;100.00
49843;BME280;55559;48.898;9.184;2023-01-26T05:08:49;98849.72;;;-0.88;100.00
49843;BME280;55559;48.898;9.184;2023-01-26T05:11:17;98855.69;;;-0.85;100.00
49843;BME280;55559;48.898;9.184;2023-01-26T05:13:58;98855.97;;;-0.92;100.00
49843;BME280;55559;48.898;9.184;2023-01-26T05:16:45;98862.31;;;-1.00;100.00
49843;BME280;55559;48.898;9.184;2023-01-26T05:19:36;98859.16;;;-1.08;100.00
49843;BME280;55559;48.898;9.184;2023-01-26T05:22:38;98854.19;;;-1.16;100.00
49843;BME280;55559;48.898;9.184;2023-01-26T05:25:26;98859.28;;;-1.13;100.00
49843;BME280;55559;48.898;9.184;2023-01-26T05:28:01;98857.72;;;-1.18;100.00
49843;BME280;55559;48.898;9.184;2023-01-26T05:30:29;98856.69;;;-1.13;100.00
49843;BME280;55559;48.898;9.184;2023-01-26T05:33:01;98855.75;;;-1.12;100.00
49843;BME280;55559;48.898;9.184;2023-01-26T05:35:29;98864.53;;;-1.13;100.00
49843;BME280;55559;48.898;9.184;2023-01-26T05:37:57;98868.13;;;-1.17;100.00
49843;BME280;55559;48.898;9.184;2023-01-26T05:40:27;98865.31;;;-1.10;100.00
49843;BME280;55559;48.898;9.184;2023-01-26T05:42:55;98859.19;;;-1.09;100.00
49843;BME280;55559;48.898;9.184;2023-01-26T05:45:40;98864.88;;;-0.98;100.00
49843;BME280;55559;48.898;9.184;2023-01-26T05:48:09;98858.81;;;-0.99;100.00
49843;BME280;55559;48.898;9.184;2023-01-26T05:50:36;98859.75;;;-1.01;100.00
49843;BME280;55559;48.898;9.184;2023-01-26T05:53:15;98858.16;;;-1.05;100.00
49843;BME280;55559;48.898;9.184;2023-01-26T05:55:46;98866.53;;;-0.96;100.00
49843;BME280;55559;48.898;9.184;2023-01-26T05:58:14;98867.47;;;-0.98;100.00
49843;BME280;55559;48.898;9.184;2023-01-26T06:00:41;98863.19;;;-0.99;100.00
49843;BME280;55559;48.898;9.184;2023-01-26T06:03:16;98860.94;;;-1.10;100.00
49843;BME280;55559;48.898;9.184;2023-01-26T06:05:43;98860.78;;;-1.05;100.00
49843;BME280;55559;48.898;9.184;2023-01-26T06:08:23;98860.03;;;-1.09;100.00
49843;BME280;55559;48.898;9.184;2023-01-26T06:11:10;98865.91;;;-1.02;100.00
49843;BME280;55559;48.898;9.184;2023-01-26T06:13:54;98855.91;;;-1.15;100.00
49843;BME280;55559;48.898;9.184;2023-01-26T06:16:26;98854.06;;;-1.13;100.00
49843;BME280;55559;48.898;9.184;2023-01-26T06:18:54;98861.97;;;-1.14;100.00
49843;BME280;55559;48.898;9.184;2023-01-26T06:21:22;98861.63;;;-1.05;100.00
49843;BME280;55559;48.898;9.184;2023-01-26T06:23:50;98870.88;;;-1.20;100.00
49843;BME280;55559;48.898;9.184;2023-01-26T06:26:19;98869.78;;;-1.14;100.00
49843;BME280;55559;48.898;9.184;2023-01-26T06:28:47;98868.13;;;-1.17;100.00
49843;BME280;55559;48.898;9.184;2023-01-26T06:31:14;98861.63;;;-1.05;100.00
49843;BME280;55559;48.898;9.184;2023-01-26T06:33:42;98866.78;;;-1.03;100.00
49843;BME280;55559;48.898;9.184;2023-01-26T06:36:12;98869.94;;;-0.94;100.00
49843;BME280;55559;48.898;9.184;2023-01-26T06:38:44;98861.38;;;-0.97;100.00
49843;BME280;55559;48.898;9.184;2023-01-26T06:41:13;98863.19;;;-0.99;100.00
49843;BME280;55559;48.898;9.184;2023-01-26T06:43:45;98867.22;;;-0.90;100.00
49843;BME280;55559;48.898;9.184;2023-01-26T06:46:14;98860.47;;;-0.96;100.00
49843;BME280;55559;48.898;9.184;2023-01-26T06:48:43;98866.78;;;-1.03;100.00
49843;BME280;55559;48.898;9.184;2023-01-26T06:51:41;98862.53;;;-1.06;100.00
49843;BME280;55559;48.898;9.184;2023-01-26T06:54:11;98861.38;;;-0.97;100.00
49843;BME280;55559;48.898;9.184;2023-01-26T06:56:59;98861.75;;;-1.08;100.00
49843;BME280;55559;48.898;9.184;2023-01-26T06:59:40;98869.50;;;-1.06;100.00
49843;BME280;55559;48.898;9.184;2023-01-26T07:02:24;98867.06;;;-1.11;100.00
49843;BME280;55559;48.898;9.184;2023-01-26T07:04:52;98852.94;;;-1.05;100.00
49843;BME280;55559;48.898;9.184;2023-01-26T07:07:19;98857.38;;;-1.07;100.00
49843;BME280;55559;48.898;9.184;2023-01-26T07:09:46;98861.56;;;-1.03;100.00
49843;BME280;55559;48.898;9.184;2023-01-26T07:12:14;98858.06;;;-1.02;100.00
49843;BME280;55559;48.898;9.184;2023-01-26T07:14:43;98854.72;;;-1.06;100.00
49843;BME280;55559;48.898;9.184;2023-01-26T07:17:10;98859.00;;;-1.05;100.00
49843;BME280;55559;48.898;9.184;2023-01-26T07:19:38;98872.97;;;-1.06;100.00
49843;BME280;55559;48.898;9.184;2023-01-26T07:22:05;98871.06;;;-1.01;100.00
49843;BME280;55559;48.898;9.184;2023-01-26T07:24:33;98879.88;;;-1.05;100.00
49843;BME280;55559;48.898;9.184;2023-01-26T07:27:00;98872.00;;;-1.03;100.00
49843;BME280;55559;48.898;9.184;2023-01-26T07:29:28;98876.44;;;-1.05;100.00
49843;BME280;55559;48.898;9.184;2023-01-26T07:31:56;98877.56;;;-1.13;100.00
49843;BME280;55559;48.898;9.184;2023-01-26T07:34:27;98885.06;;;-1.03;100.00
49843;BME280;55559;48.898;9.184;2023-01-26T07:36:54;98881.56;;;-1.02;100.00
49843;BME280;55559;48.898;9.184;2023-01-26T07:39:25;98878.94;;;-1.02;100.00
49843;BME280;55559;48.898;9.184;2023-01-26T07:41:52;98875.50;;;-1.03;100.00
49843;BME280;55559;48.898;9.184;2023-01-26T07:44:32;98876.22;;;-0.99;100.00
49843;BME280;55559;48.898;9.184;2023-01-26T07:47:01;98875.94;;;-0.91;100.00
49843;BME280;55559;48.898;9.184;2023-01-26T07:49:29;98877.56;;;-0.87;100.00
49843;BME280;55559;48.898;9.184;2023-01-26T07:51:57;98871.84;;;-0.99;100.00
49843;BME280;55559;48.898;9.184;2023-01-26T07:54:24;98870.09;;;-0.98;100.00
49843;BME280;55559;48.898;9.184;2023-01-26T07:56:52;98878.03;;;-1.01;100.00
49843;BME280;55559;48.898;9.184;2023-01-26T07:59:20;98864.03;;;-0.99;100.00
49843;BME280;55559;48.898;9.184;2023-01-26T08:01:48;98875.19;;;-0.95;100.00
49843;BME280;55559;48.898;9.184;2023-01-26T08:04:17;98870.78;;;-0.93;100.00
49843;BME280;55559;48.898;9.184;2023-01-26T08:06:45;98872.34;;;-1.13;100.00
49843;BME280;55559;48.898;9.184;2023-01-26T08:09:12;98876.34;;;-1.02;100.00
49843;BME280;55559;48.898;9.184;2023-01-26T08:11:40;98871.13;;;-1.02;100.00
49843;BME280;55559;48.898;9.184;2023-01-26T08:14:07;98871.06;;;-1.01;100.00
49843;BME280;55559;48.898;9.184;2023-01-26T08:16:35;98879.28;;;-0.88;100.00
49843;BME280;55559;48.898;9.184;2023-01-26T08:19:02;98875.78;;;-0.87;100.00
49843;BME280;55559;48.898;9.184;2023-01-26T08:21:31;98868.69;;;-0.83;100.00
49843;BME280;55559;48.898;9.184;2023-01-26T08:23:58;98868.06;;;-0.90;100.00
49843;BME280;55559;48.898;9.184;2023-01-26T08:26:28;98869.88;;;-0.92;100.00
49843;BME280;55559;48.898;9.184;2023-01-26T08:28:55;98875.63;;;-0.82;100.00
49843;BME280;55559;48.898;9.184;2023-01-26T08:31:23;98857.41;;;-0.84;100.00
49843;BME280;55559;48.898;9.184;2023-01-26T08:33:55;98865.81;;;-0.76;100.00
49843;BME280;55559;48.898;9.184;2023-01-26T08:36:22;98860.53;;;-0.74;100.00
49843;BME280;55559;48.898;9.184;2023-01-26T08:38:51;98863.38;;;-0.80;100.00
49843;BME280;55559;48.898;9.184;2023-01-26T08:41:20;98860.69;;;-0.79;100.00
49843;BME280;55559;48.898;9.184;2023-01-26T08:43:47;98856.72;;;-0.65;100.00
49843;BME280;55559;48.898;9.184;2023-01-26T08:46:16;98851.63;;;-0.68;100.00
49843;BME280;55559;48.898;9.184;2023-01-26T08:48:43;98862.91;;;-0.68;100.00
49843;BME280;55559;48.898;9.184;2023-01-26T08:51:11;98859.63;;;-0.73;100.00
49843;BME280;55559;48.898;9.184;2023-01-26T08:53:38;98853.72;;;-0.78;100.00
49843;BME280;55559;48.898;9.184;2023-01-26T08:56:09;98850.81;;;-0.70;100.00
49843;BME280;55559;48.898;9.184;2023-01-26T08:58:37;98855.00;;;-0.66;100.00
49843;BME280;55559;48.898;9.184;2023-01-26T09:01:05;98848.09;;;-0.67;100.00
49843;BME280;55559;48.898;9.184;2023-01-26T09:03:33;98854.00;;;-0.62;100.00
49843;BME280;55559;48.898;9.184;2023-01-26T09:06:01;98839.25;;;-0.63;100.00
49843;BME280;55559;48.898;9.184;2023-01-26T09:08:29;98849.75;;;-0.65;100.00
49843;BME280;55559;48.898;9.184;2023-01-26T09:10:56;98846.72;;;-0.78;100.00
49843;BME280;55559;48.898;9.184;2023-01-26T09:13:26;98843.44;;;-0.83;100.00
49843;BME280;55559;48.898;9.184;2023-01-26T09:15:53;98850.25;;;-0.79;100.00
49843;BME280;55559;48.898;9.184;2023-01-26T09:18:21;98846.91;;;-0.82;100.00
49843;BME280;55559;48.898;9.184;2023-01-26T09:20:48;98843.22;;;-0.77;100.00
49843;BME280;55559;48.898;9.184;2023-01-26T09:23:16;98853.44;;;-0.70;100.00
49843;BME280;55559;48.898;9.184;2023-01-26T09:25:44;98858.81;;;-0.75;100.00
49843;BME280;55559;48.898;9.184;2023-01-26T09:28:12;98850.03;;;-0.72;100.00
49843;BME280;55559;48.898;9.184;2023-01-26T09:30:40;98852.13;;;-0.59;100.00
49843;BME280;55559;48.898;9.184;2023-01-26T09:33:08;98853.09;;;-0.61;100.00
49843;BME280;55559;48.898;9.184;2023-01-26T09:35:35;98853.75;;;-0.56;100.00
49843;BME280;55559;48.898;9.184;2023-01-26T09:38:03;98856.63;;;-0.62;100.00
49843;BME280;55559;48.898;9.184;2023-01-26T09:40:37;98863.31;;;-0.79;100.00
49843;BME280;55559;48.898;9.184;2023-01-26T09:43:19;98858.81;;;-0.75;100.00
49843;BME280;55559;48.898;9.184;2023-01-26T09:45:59;98867.56;;;-0.76;100.00
49843;BME280;55559;48.898;9.184;2023-01-26T09:48:36;98862.13;;;-0.70;100.00
49843;BME280;55559;48.898;9.184;2023-01-26T09:51:09;98865.56;;;-0.69;100.00
49843;BME280;55559;48.898;9.184;2023-01-26T09:53:43;98861.78;;;-0.84;100.00
49843;BME280;55559;48.898;9.184;2023-01-26T09:56:16;98853.66;;;-0.77;100.00
49843;BME280;55559;48.898;9.184;2023-01-26T09:58:47;98860.97;;;-0.63;100.00
49843;BME280;55559;48.898;9.184;2023-01-26T10:01:25;98861.69;;;-0.83;100.00
49843;BME280;55559;48.898;9.184;2023-01-26T10:04:01;98859.19;;;-0.84;100.00
49843;BME280;55559;48.898;9.184;2023-01-26T10:06:31;98862.38;;;-0.78;100.00
49843;BME280;55559;48.898;9.184;2023-01-26T10:09:11;98853.94;;;-0.84;100.00
49843;BME280;55559;48.898;9.184;2023-01-26T10:11:43;98857.63;;;-0.90;100.00
49843;BME280;55559;48.898;9.184;2023-01-26T10:14:14;98847.81;;;-0.83;100.00
49843;BME280;55559;48.898;9.184;2023-01-26T10:16:46;98854.19;;;-0.67;100.00
49843;BME280;55559;48.898;9.184;2023-01-26T10:19:19;98851.66;;;-0.70;100.00
49843;BME280;55559;48.898;9.184;2023-01-26T10:21:50;98848.06;;;-0.66;100.00
49843;BME280;55559;48.898;9.184;2023-01-26T10:24:22;98854.22;;;-0.68;100.00
49843;BME280;55559;48.898;9.184;2023-01-26T10:26:52;98849.41;;;-0.79;100.00
49843;BME280;55559;48.898;9.184;2023-01-26T10:29:22;98849.91;;;-0.69;100.00
49843;BME280;55559;48.898;9.184;2023-01-26T10:31:50;98848.94;;;-0.67;100.00
49843;BME280;55559;48.898;9.184;2023-01-26T10:34:23;98850.81;;;-0.70;100.00
49843;BME280;55559;48.898;9.184;2023-01-26T10:36:57;98847.91;;;-0.86;100.00
49843;BME280;55559;48.898;9.184;2023-01-26T10:39:26;98849.75;;;-0.65;100.00
49843;BME280;55559;48.898;9.184;2023-01-26T10:41:58;98844.69;;;-0.69;100.00
49843;BME280;55559;48.898;9.184;2023-01-26T10:44:31;98848.78;;;-0.62;100.00
49843;BME280;55559;48.898;9.184;2023-01-26T10:47:15;98844.94;;;-0.76;100.00
49843;BME280;55559;48.898;9.184;2023-01-26T10:49:43;98854.31;;;-0.95;100.00
49843;BME280;55559;48.898;9.184;2023-01-26T10:52:15;98838.19;;;-0.83;100.00
49843;BME280;55559;48.898;9.184;2023-01-26T10:54:44;98841.16;;;-0.92;100.00
49843;BME280;55559;48.898;9.184;2023-01-26T10:57:20;98841.22;;;-0.94;100.00
49843;BME280;55559;48.898;9.184;2023-01-26T10:59:51;98842.41;;;-0.79;100.00
49843;BME280;55559;48.898;9.184;2023-01-26T11:02:24;98838.03;;;-0.78;100.00
49843;BME280;55559;48.898;9.184;2023-01-26T11:05:19;98836.34;;;-0.79;100.00
49843;BME280;55559;48.898;9.184;2023-01-26T11:07:48;98841.16;;;-0.68;100.00
49843;BME280;55559;48.898;9.184;2023-01-26T11:10:19;98834.22;;;-0.69;100.00
49843;BME280;55559;48.898;9.184;2023-01-26T11:12:47;98827.03;;;-0.63;100.00
49843;BME280;55559;48.898;9.184;2023-01-26T11:15:16;98837.19;;;-0.79;100.00
49843;BME280;55559;48.898;9.184;2023-01-26T11:17:50;98830.94;;;-0.75;100.00
49843;BME280;55559;48.898;9.184;2023-01-26T11:20:41;98818.56;;;-0.93;100.00
49843;BME280;55559;48.898;9.184;2023-01-26T11:23:18;98820.84;;;-0.84;100.00
49843;BME280;55559;48.898;9.184;2023-01-26T11:26:08;98822.09;;;-0.70;100.00
49843;BME280;55559;48.898;9.184;2023-01-26T11:28:46;98810.56;;;-0.65;100.00
49843;BME280;55559;48.898;9.184;2023-01-26T11:31:28;98817.94;;;-0.52;100.00
49843;BME280;55559;48.898;9.184;2023-01-26T11:34:10;98809.34;;;-0.56;100.00
49843;BME280;55559;48.898;9.184;2023-01-26T11:36:48;98817.00;;;-0.73;100.00
49843;BME280;55559;48.898;9.184;2023-01-26T11:39:25;98810.94;;;-0.74;100.00
49843;BME280;55559;48.898;9.184;2023-01-26T11:42:07;98804.16;;;-0.80;100.00
49843;BME280;55559;48.898;9.184;2023-01-26T11:44:53;98801.72;;;-0.61;100.00
49843;BME280;55559;48.898;9.184;2023-01-26T11:47:33;98802.34;;;-0.54;100.00
49843;BME280;55559;48.898;9.184;2023-01-26T11:50:17;98800.91;;;-0.63;100.00
49843;BME280;55559;48.898;9.184;2023-01-26T11:52:54;98798.28;;;-0.63;100.00
49843;BME280;55559;48.898;9.184;2023-01-26T11:55:32;98796.56;;;-0.62;100.00
49843;BME280;55559;48.898;9.184;2023-01-26T11:58:23;98796.41;;;-0.59;100.00
49843;BME280;55559;48.898;9.184;2023-01-26T12:00:55;98791.03;;;-0.78;100.00
49843;BME280;55559;48.898;9.184;2023-01-26T12:03:29;98794.34;;;-0.97;100.00
49843;BME280;55559;48.898;9.184;2023-01-26T12:06:04;98788.72;;;-0.86;100.00
49843;BME280;55559;48.898;9.184;2023-01-26T12:08:36;98786.84;;;-1.06;100.00
49843;BME280;55559;48.898;9.184;2023-01-26T12:11:08;98779.41;;;-0.93;100.00
49843;BME280;55559;48.898;9.184;2023-01-26T12:14:03;98773.22;;;-0.90;100.00
49843;BME280;55559;48.898;9.184;2023-01-26T12:16:51;98779.88;;;-0.82;100.00
49843;BME280;55559;48.898;9.184;2023-01-26T12:19:33;98784.00;;;-0.30;100.00
49843;BME280;55559;48.898;9.184;2023-01-26T12:22:12;98777.84;;;0.35;100.00
49843;BME280;55559;48.898;9.184;2023-01-26T12:24:49;98777.03;;;-0.76;100.00
49843;BME280;55559;48.898;9.184;2023-01-26T12:27:23;98768.00;;;-0.67;100.00
49843;BME280;55559;48.898;9.184;2023-01-26T12:29:56;98768.53;;;-0.81;100.00
49843;BME280;55559;48.898;9.184;2023-01-26T12:32:27;98760.50;;;-0.76;100.00
49843;BME280;55559;48.898;9.184;2023-01-26T12:34:54;98760.44;;;-0.75;100.00
49843;BME280;55559;48.898;9.184;2023-01-26T12:37:43;98752.38;;;-0.68;100.00
49843;BME280;55559;48.898;9.184;2023-01-26T12:40:22;98760.44;;;-0.75;100.00
49843;BME280;55559;48.898;9.184;2023-01-26T12:43:00;98751.00;;;-0.55;100.00
49843;BME280;55559;48.898;9.184;2023-01-26T12:45:34;98757.16;;;-0.80;100.00
49843;BME280;55559;48.898;9.184;2023-01-26T12:48:08;98752.03;;;-0.83;100.00
49843;BME280;55559;48.898;9.184;2023-01-26T12:50:40;98738.59;;;-0.72;100.00
49843;BME280;55559;48.898;9.184;2023-01-26T12:53:16;98742.22;;;-0.76;100.00
49843;BME280;55559;48.898;9.184;2023-01-26T12:55:48;98732.53;;;-0.72;100.00
49843;BME280;55559;48.898;9.184;2023-01-26T12:58:20;98732.53;;;-0.72;100.00
49843;BME280;55559;48.898;9.184;2023-01-26T13:01:01;98740.75;;;-0.83;100.00
49843;BME280;55559;48.898;9.184;2023-01-26T13:03:39;98742.09;;;-0.73;100.00
49843;BME280;55559;48.898;9.184;2023-01-26T13:06:18;98753.28;;;-0.69;100.00
49843;BME280;55559;48.898;9.184;2023-01-26T13:08:50;98742.16;;;-0.75;100.00
49843;BME280;55559;48.898;9.184;2023-01-26T13:11:46;98737.66;;;-0.71;100.00
49843;BME280;55559;48.898;9.184;2023-01-26T13:14:28;98739.88;;;-0.60;100.00
49843;BME280;55559;48.898;9.184;2023-01-26T13:16:56;98734.78;;;-0.63;100.00
49843;BME280;55559;48.898;9.184;2023-01-26T13:19:51;98733.19;;;-0.67;100.00